createdAt,value
2018-11-03T00:00:52.967Z,89.09
2018-11-03T00:03:33.590Z,89.28
2018-11-03T00:06:02.101Z,89.16
2018-11-03T00:08:30.659Z,89.19
2018-11-03T00:10:59.229Z,89.40
2018-11-03T00:13:27.758Z,89.42
2018-11-03T00:15:56.250Z,89.47
2018-11-03T00:18:24.781Z,89.21
2018-11-03T00:20:53.270Z,88.87
2018-11-03T00:23:21.845Z,88.96
2018-11-03T00:25:50.320Z,88.52
2018-11-03T00:28:18.833Z,88.47
2018-11-03T00:30:47.365Z,88.48
2018-11-03T00:33:15.876Z,88.41
2018-11-03T00:35:44.372Z,88.73
2018-11-03T00:38:15.654Z,88.71
2018-11-03T00:40:44.770Z,88.21
2018-11-03T00:43:15.849Z,87.97
2018-11-03T00:45:47.583Z,87.87
2018-11-03T00:48:16.059Z,86.98
2018-11-03T00:50:44.581Z,87.07
2018-11-03T00:53:13.065Z,86.57
2018-11-03T00:55:41.569Z,86.32
2018-11-03T00:58:16.086Z,85.56
2018-11-03T01:00:44.925Z,85.50
2018-11-03T01:03:13.383Z,85.29
2018-11-03T01:05:41.895Z,84.73
2018-11-03T01:08:10.445Z,85.14
2018-11-03T01:10:38.967Z,85.00
2018-11-03T01:13:07.460Z,83.72
2018-11-03T01:15:35.982Z,85.28
2018-11-03T01:18:04.474Z,84.83
2018-11-03T01:20:32.957Z,85.15
2018-11-03T01:23:04.688Z,85.84
2018-11-03T01:25:35.605Z,87.04
2018-11-03T01:28:04.276Z,88.17
2018-11-03T01:30:32.782Z,87.26
2018-11-03T01:33:01.382Z,87.74
2018-11-03T01:35:29.813Z,87.96
2018-11-03T01:37:58.297Z,88.07
2018-11-03T01:40:26.786Z,88.39
2018-11-03T01:42:55.270Z,89.01
2018-11-03T01:45:23.809Z,88.74
2018-11-03T01:47:52.311Z,88.99
2018-11-03T01:50:20.867Z,88.96
2018-11-03T01:52:49.391Z,88.63
2018-11-03T01:55:18.463Z,88.07
2018-11-03T01:57:46.994Z,88.67
2018-11-03T02:00:18.541Z,88.50
2018-11-03T02:02:50.707Z,88.90
2018-11-03T02:05:19.359Z,88.81
2018-11-03T02:11:13.688Z,89.66
2018-11-03T02:14:15.920Z,88.98
2018-11-03T02:17:00.891Z,89.04
2018-11-03T02:19:30.662Z,89.21
2018-11-03T02:21:59.145Z,88.93
2018-11-03T02:24:28.007Z,88.91
2018-11-03T02:26:56.941Z,89.70
2018-11-03T02:29:31.348Z,89.31
2018-11-03T02:31:59.995Z,90.00
2018-11-03T02:34:28.531Z,89.42
2018-11-03T02:36:57.040Z,89.70
2018-11-03T02:39:28.626Z,89.08
2018-11-03T02:42:01.848Z,88.83
2018-11-03T02:44:33.761Z,88.39
2018-11-03T02:47:05.357Z,88.22
2018-11-03T02:49:39.891Z,89.25
2018-11-03T02:52:12.626Z,89.27
2018-11-03T02:54:41.269Z,89.84
2018-11-03T02:57:09.748Z,89.26
2018-11-03T02:59:38.288Z,88.69
2018-11-03T03:02:06.820Z,88.95
2018-11-03T03:04:38.938Z,88.94
2018-11-03T03:07:10.733Z,87.90
2018-11-03T03:09:42.334Z,88.03
2018-11-03T03:12:17.294Z,87.48
2018-11-03T03:14:50.823Z,87.68
2018-11-03T03:17:23.813Z,87.31
2018-11-03T03:19:56.287Z,87.67
2018-11-03T03:22:28.329Z,87.49
2018-11-03T03:24:59.839Z,87.49
2018-11-03T03:30:05.182Z,86.83
2018-11-03T03:32:33.653Z,86.51
2018-11-03T03:35:02.157Z,86.51
2018-11-03T03:37:33.899Z,86.33
2018-11-03T03:40:02.678Z,86.60
2018-11-03T03:42:31.191Z,86.58
2018-11-03T03:44:59.744Z,86.33
2018-11-03T03:47:28.204Z,87.08
2018-11-03T03:49:56.762Z,87.34
2018-11-03T03:52:25.286Z,87.39
2018-11-03T03:54:53.822Z,86.85
2018-11-03T03:57:22.325Z,87.35
2018-11-03T03:59:50.842Z,86.89
2018-11-03T04:02:19.358Z,87.02
2018-11-03T04:04:47.826Z,87.08
2018-11-03T04:07:16.314Z,87.23
2018-11-03T04:09:44.822Z,87.45
2018-11-03T04:12:13.342Z,87.33
2018-11-03T04:14:41.820Z,87.72
2018-11-03T04:20:41.443Z,87.72
2018-11-03T04:23:10.239Z,87.99
2018-11-03T04:25:44.048Z,88.11
2018-11-03T04:28:14.699Z,88.08
2018-11-03T04:30:44.404Z,88.40
2018-11-03T04:33:16.470Z,88.51
2018-11-03T04:39:30.026Z,89.06
2018-11-03T04:42:29.348Z,89.39
2018-11-03T04:44:59.352Z,89.16
2018-11-03T04:47:38.893Z,89.37
2018-11-03T04:50:13.907Z,89.65
2018-11-03T04:52:42.408Z,89.24
2018-11-03T04:55:11.100Z,88.91
2018-11-03T04:57:39.489Z,88.69
2018-11-03T05:00:11.772Z,88.80
2018-11-03T05:02:42.358Z,88.73
2018-11-03T05:05:13.907Z,88.46
2018-11-03T05:07:45.371Z,88.04
2018-11-03T05:10:15.805Z,88.55
2018-11-03T05:12:47.743Z,88.41
2018-11-03T05:15:18.692Z,87.85
2018-11-03T05:17:50.367Z,87.96
2018-11-03T05:20:23.195Z,87.87
2018-11-03T05:22:51.668Z,87.96
2018-11-03T05:25:27.635Z,87.92
2018-11-03T05:27:56.552Z,87.78
2018-11-03T05:30:28.773Z,88.02
2018-11-03T05:32:57.508Z,88.51
2018-11-03T05:35:26.018Z,89.01
2018-11-03T05:37:54.575Z,90.22
2018-11-03T05:40:23.078Z,90.92
2018-11-03T05:42:51.561Z,91.17
2018-11-03T05:45:20.072Z,91.52
2018-11-03T05:47:48.565Z,91.69
2018-11-03T05:50:17.074Z,92.48
2018-11-03T05:52:45.547Z,92.32
2018-11-03T05:55:14.035Z,92.77
2018-11-03T05:57:42.485Z,93.36
2018-11-03T06:00:11.079Z,93.00
2018-11-03T06:02:39.581Z,93.04
2018-11-03T06:05:08.077Z,92.53
2018-11-03T06:07:36.569Z,92.53
2018-11-03T06:10:06.053Z,91.88
2018-11-03T06:12:34.554Z,91.24
2018-11-03T06:15:03.030Z,90.79
2018-11-03T06:17:31.568Z,90.66
2018-11-03T06:20:00.107Z,89.77
2018-11-03T06:22:28.654Z,89.51
2018-11-03T06:24:57.170Z,89.61
2018-11-03T06:27:25.688Z,89.19
2018-11-03T06:29:54.200Z,88.65
2018-11-03T06:32:22.711Z,87.96
2018-11-03T06:34:51.190Z,87.96
2018-11-03T06:37:19.770Z,87.76
2018-11-03T06:39:48.283Z,88.25
2018-11-03T06:42:16.795Z,87.86
2018-11-03T06:44:45.262Z,87.89
2018-11-03T06:47:13.833Z,87.59
2018-11-03T06:49:42.295Z,87.89
2018-11-03T06:52:10.880Z,88.42
2018-11-03T06:54:39.371Z,89.44
2018-11-03T06:57:07.903Z,89.42
2018-11-03T06:59:36.393Z,89.77
2018-11-03T07:02:04.976Z,90.59
2018-11-03T07:04:33.472Z,90.70
2018-11-03T07:07:01.990Z,90.98
2018-11-03T07:09:38.597Z,91.59
2018-11-03T07:12:07.242Z,91.43
2018-11-03T07:14:35.737Z,91.40
2018-11-03T07:17:04.250Z,91.36
2018-11-03T07:19:32.772Z,90.84
2018-11-03T07:22:03.661Z,90.48
2018-11-03T07:24:32.298Z,89.30
2018-11-03T07:27:00.823Z,88.75
2018-11-03T07:29:29.436Z,88.52
2018-11-03T07:31:57.913Z,87.99
2018-11-03T07:34:28.826Z,87.87
2018-11-03T07:36:57.535Z,87.69
2018-11-03T07:39:26.082Z,87.69
2018-11-03T07:41:54.629Z,87.61
2018-11-03T07:44:23.153Z,87.81
2018-11-03T07:46:51.665Z,87.36
2018-11-03T07:49:20.219Z,86.98
2018-11-03T07:51:52.490Z,87.36
2018-11-03T07:54:23.870Z,87.00
2018-11-03T07:56:56.001Z,86.88
2018-11-03T07:59:29.024Z,86.54
2018-11-03T08:02:00.447Z,86.17
2018-11-03T08:04:41.571Z,84.95
2018-11-03T08:07:10.488Z,83.36
2018-11-03T08:09:38.949Z,82.87
2018-11-03T08:12:07.471Z,81.63
2018-11-03T08:14:35.935Z,82.08
2018-11-03T08:17:15.851Z,82.05
2018-11-03T08:19:44.662Z,81.68
2018-11-03T08:22:13.197Z,81.68
2018-11-03T08:24:41.674Z,81.02
2018-11-03T08:27:10.243Z,80.54
2018-11-03T08:29:40.551Z,79.92
2018-11-03T08:32:09.148Z,78.50
2018-11-03T08:34:38.230Z,77.25
2018-11-03T08:37:08.760Z,76.06
2018-11-03T08:39:42.421Z,76.90
2018-11-03T08:42:10.907Z,78.29
2018-11-03T08:44:43.235Z,79.29
2018-11-03T08:47:15.486Z,79.07
2018-11-03T08:49:44.241Z,78.07
2018-11-03T08:52:12.777Z,79.73
2018-11-03T08:54:41.303Z,80.17
2018-11-03T08:57:12.484Z,78.11
2018-11-03T08:59:41.293Z,76.05
2018-11-03T09:02:09.747Z,74.56
2018-11-03T09:04:38.287Z,74.53
2018-11-03T09:07:10.941Z,73.65
2018-11-03T09:09:41.508Z,75.35
2018-11-03T09:12:12.264Z,75.33
2018-11-03T09:14:40.920Z,73.82
2018-11-03T09:17:09.587Z,73.48
2018-11-03T09:19:38.071Z,72.41
2018-11-03T09:22:06.668Z,71.97
2018-11-03T09:24:35.232Z,73.19
2018-11-03T09:27:07.168Z,73.26
2018-11-03T09:29:35.662Z,72.29
2018-11-03T09:32:04.358Z,72.84
2018-11-03T09:34:32.862Z,73.77
2018-11-03T09:37:01.341Z,74.26
2018-11-03T09:39:29.880Z,75.17
2018-11-03T09:42:01.321Z,74.03
2018-11-03T09:44:30.053Z,74.83
2018-11-03T09:46:58.586Z,74.90
2018-11-03T09:49:27.086Z,75.26
2018-11-03T09:51:55.662Z,75.31
2018-11-03T09:54:24.144Z,76.77
2018-11-03T09:56:52.667Z,76.60
2018-11-03T09:59:21.153Z,73.35
2018-11-03T10:01:49.692Z,72.49
2018-11-03T10:04:18.238Z,71.96
2018-11-03T10:06:46.772Z,71.53
2018-11-03T10:09:18.086Z,71.52
2018-11-03T10:11:50.582Z,71.56
2018-11-03T10:14:19.425Z,71.01
2018-11-03T10:16:47.957Z,71.01
2018-11-03T10:19:16.468Z,71.60
2018-11-03T10:21:45.002Z,71.22
2018-11-03T10:24:13.522Z,71.09
2018-11-03T10:26:42.006Z,69.08
2018-11-03T10:29:10.531Z,68.73
2018-11-03T10:31:39.026Z,67.20
2018-11-03T10:34:09.858Z,65.87
2018-11-03T10:36:38.610Z,64.31
2018-11-03T10:39:13.459Z,63.23
2018-11-03T10:41:44.501Z,62.30
2018-11-03T10:44:13.229Z,61.93
2018-11-03T10:46:41.731Z,62.43
2018-11-03T10:49:14.198Z,63.38
2018-11-03T10:51:44.771Z,64.23
2018-11-03T10:54:13.521Z,64.14
2018-11-03T10:56:45.684Z,63.28
2018-11-03T10:59:17.295Z,62.82
2018-11-03T11:01:51.607Z,62.50
2018-11-03T11:04:26.011Z,62.26
2018-11-03T11:07:02.724Z,61.84
2018-11-03T11:09:37.895Z,62.18
2018-11-03T11:12:16.525Z,62.83
2018-11-03T11:14:45.247Z,62.78
2018-11-03T11:17:13.798Z,62.64
2018-11-03T11:19:47.528Z,62.18
2018-11-03T11:22:16.221Z,61.42
2018-11-03T11:24:44.776Z,61.63
2018-11-03T11:27:13.321Z,60.20
2018-11-03T11:29:44.525Z,59.67
2018-11-03T11:32:15.566Z,58.49
2018-11-03T11:34:59.181Z,57.90
2018-11-03T11:37:29.050Z,57.30
2018-11-03T11:39:57.600Z,56.83
2018-11-03T11:42:30.055Z,57.75
2018-11-03T11:45:01.896Z,57.50
2018-11-03T11:47:33.052Z,57.57
2018-11-03T11:50:04.706Z,56.69
2018-11-03T11:52:50.033Z,57.17
2018-11-03T11:55:18.940Z,58.42
2018-11-03T11:57:47.616Z,57.96
2018-11-03T12:00:16.169Z,56.78
2018-11-03T12:02:44.678Z,56.03
2018-11-03T12:05:13.258Z,56.06
2018-11-03T12:07:41.759Z,55.90
2018-11-03T12:10:10.423Z,55.71
2018-11-03T12:12:40.898Z,56.73
2018-11-03T12:15:12.347Z,55.38
2018-11-03T12:17:41.066Z,56.21
2018-11-03T12:20:09.975Z,56.48
2018-11-03T12:22:39.230Z,55.95
2018-11-03T12:25:09.269Z,55.84
2018-11-03T12:27:37.848Z,55.79
2018-11-03T12:30:08.411Z,56.19
2018-11-03T12:32:36.954Z,56.66
2018-11-03T12:35:07.671Z,56.55
2018-11-03T12:37:37.013Z,57.90
2018-11-03T12:40:07.018Z,59.23
2018-11-03T12:42:35.555Z,59.28
2018-11-03T12:45:05.787Z,59.92
2018-11-03T12:47:34.416Z,59.66
2018-11-03T12:50:05.718Z,60.14
2018-11-03T12:52:34.403Z,60.89
2018-11-03T12:55:02.971Z,60.40
2018-11-03T12:57:31.540Z,60.69
2018-11-03T13:00:07.729Z,60.28
2018-11-03T13:02:36.384Z,60.71
2018-11-03T13:05:05.491Z,59.50
2018-11-03T13:07:33.920Z,58.58
2018-11-03T13:10:02.556Z,57.34
2018-11-03T13:12:30.986Z,57.65
2018-11-03T13:14:59.507Z,57.43
2018-11-03T13:17:27.996Z,57.38
2018-11-03T13:19:56.529Z,57.27
2018-11-03T13:22:25.088Z,57.26
2018-11-03T13:25:13.836Z,57.06
2018-11-03T13:27:42.930Z,58.11
2018-11-03T13:30:13.482Z,57.79
2018-11-03T13:32:42.005Z,58.04
2018-11-03T13:35:11.837Z,57.51
2018-11-03T13:37:40.758Z,57.40
2018-11-03T13:40:10.761Z,57.60
2018-11-03T13:42:39.341Z,58.96
2018-11-03T13:45:08.598Z,59.95
2018-11-03T13:47:38.130Z,61.17
2018-11-03T13:50:14.264Z,60.88
2018-11-03T13:52:44.357Z,60.82
2018-11-03T13:55:12.983Z,59.05
2018-11-03T13:57:42.679Z,58.16
2018-11-03T14:00:19.344Z,58.13
2018-11-03T14:03:19.036Z,58.08
2018-11-03T14:05:48.225Z,57.91
2018-11-03T14:08:22.995Z,58.16
2018-11-03T14:10:52.635Z,57.61
2018-11-03T14:13:23.746Z,58.07
2018-11-03T14:15:53.778Z,57.77
2018-11-03T14:18:24.527Z,57.90
2018-11-03T14:20:54.107Z,58.00
2018-11-03T14:23:23.766Z,58.50
2018-11-03T14:25:53.037Z,58.74
2018-11-03T14:28:21.699Z,59.28
2018-11-03T14:30:51.126Z,59.19
2018-11-03T14:33:22.960Z,60.08
2018-11-03T14:35:58.571Z,59.91
2018-11-03T14:38:50.884Z,59.68
2018-11-03T14:41:39.864Z,60.32
2018-11-03T14:44:28.359Z,60.15
2018-11-03T14:46:58.747Z,61.30
2018-11-03T14:50:05.769Z,61.21
2018-11-03T14:52:44.495Z,61.78
2018-11-03T14:55:16.001Z,62.25
2018-11-03T14:57:47.339Z,62.57
2018-11-03T15:00:18.022Z,63.01
2018-11-03T15:02:48.269Z,64.46
2018-11-03T15:05:19.110Z,64.71
2018-11-03T15:07:58.064Z,65.30
2018-11-03T15:11:04.091Z,65.20
2018-11-03T15:13:40.734Z,67.31
2018-11-03T15:16:12.227Z,67.51
2018-11-03T15:18:42.438Z,67.07
2018-11-03T15:21:14.092Z,66.93
2018-11-03T15:23:42.770Z,66.91
2018-11-03T15:26:11.351Z,66.79
2018-11-03T15:28:39.855Z,67.20
2018-11-03T15:31:08.372Z,67.12
2018-11-03T15:33:36.886Z,67.34
2018-11-03T15:36:07.945Z,67.49
2018-11-03T15:38:36.575Z,67.75
2018-11-03T15:41:08.218Z,68.19
2018-11-03T15:43:37.052Z,68.84
2018-11-03T15:46:06.141Z,68.63
2018-11-03T15:48:34.710Z,68.70
2018-11-03T15:51:03.263Z,68.96
2018-11-03T15:53:31.810Z,68.82
2018-11-03T15:56:00.396Z,69.06
2018-11-03T15:58:28.959Z,69.77
2018-11-03T16:00:57.498Z,69.50
2018-11-03T16:03:27.778Z,69.86
2018-11-03T16:06:03.024Z,69.97
2018-11-03T16:08:49.629Z,70.73
2018-11-03T16:11:31.214Z,70.79
2018-11-03T16:14:12.712Z,70.97
2018-11-03T16:16:56.335Z,71.29
2018-11-03T16:19:34.005Z,71.69
2018-11-03T16:22:06.404Z,71.69
2018-11-03T16:24:40.518Z,72.49
2018-11-03T16:27:09.298Z,72.53
2018-11-03T16:29:37.835Z,72.37
2018-11-03T16:32:07.379Z,72.69
2018-11-03T16:34:44.215Z,72.68
2018-11-03T16:37:12.743Z,72.51
2018-11-03T16:39:41.403Z,72.96
2018-11-03T16:42:10.545Z,72.65
2018-11-03T16:44:50.576Z,72.83
2018-11-03T16:47:19.150Z,73.10
2018-11-03T16:49:47.619Z,73.06
2018-11-03T16:52:17.363Z,73.00
2018-11-03T16:54:45.878Z,73.13
2018-11-03T16:57:14.394Z,73.29
2018-11-03T16:59:42.881Z,73.44
2018-11-03T17:02:11.377Z,73.40
2018-11-03T17:04:45.567Z,73.17
2018-11-03T17:07:14.337Z,73.31
2018-11-03T17:09:42.835Z,73.44
2018-11-03T17:12:11.454Z,73.12
2018-11-03T17:14:40.012Z,73.71
2018-11-03T17:17:08.558Z,73.82
2018-11-03T17:19:37.088Z,73.88
2018-11-03T17:22:05.781Z,73.38
2018-11-03T17:24:34.317Z,73.43
2018-11-03T17:27:02.837Z,73.76
2018-11-03T17:29:31.379Z,73.76
2018-11-03T17:31:59.921Z,73.94
2018-11-03T17:34:28.452Z,73.65
2018-11-03T17:36:57.281Z,73.85
2018-11-03T17:39:25.798Z,73.53
2018-11-03T17:41:54.323Z,73.78
2018-11-03T17:44:22.823Z,73.67
2018-11-03T17:46:51.342Z,74.08
2018-11-03T17:49:19.884Z,73.95
2018-11-03T17:51:48.735Z,73.71
2018-11-03T17:54:17.611Z,73.69
2018-11-03T17:56:46.182Z,73.77
2018-11-03T17:59:14.690Z,73.78
2018-11-03T18:01:43.219Z,74.08
2018-11-03T18:04:11.768Z,74.35
2018-11-03T18:06:40.327Z,74.67
2018-11-03T18:09:09.556Z,74.49
2018-11-03T18:11:38.103Z,74.42
2018-11-03T18:14:06.672Z,74.14
2018-11-03T18:16:35.289Z,74.51
2018-11-03T18:19:03.831Z,74.69
2018-11-03T18:21:36.277Z,74.70
2018-11-03T18:24:05.014Z,75.16
2018-11-03T18:26:33.624Z,75.34
2018-11-03T18:29:02.148Z,75.40
2018-11-03T18:31:30.689Z,75.48
2018-11-03T18:33:59.243Z,75.38
2018-11-03T18:36:27.765Z,75.33
2018-11-03T18:38:56.249Z,75.25
2018-11-03T18:41:24.835Z,75.36
2018-11-03T18:43:53.355Z,75.42
2018-11-03T18:46:21.959Z,75.26
2018-11-03T18:48:50.462Z,75.39
2018-11-03T18:51:19.012Z,75.49
2018-11-03T18:53:48.376Z,75.98
2018-11-03T18:56:17.862Z,75.96
2018-11-03T18:58:47.061Z,75.86
2018-11-03T19:01:18.929Z,76.32
2018-11-03T19:03:47.626Z,76.14
2018-11-03T19:06:16.179Z,76.08
2018-11-03T19:08:44.788Z,75.61
2018-11-03T19:11:13.339Z,76.24
2018-11-03T19:13:41.858Z,76.51
2018-11-03T19:16:10.460Z,76.28
2018-11-03T19:18:44.033Z,77.16
2018-11-03T19:21:14.345Z,77.59
2018-11-03T19:23:46.328Z,77.81
2018-11-03T19:26:15.131Z,78.08
2018-11-03T19:28:43.610Z,78.63
2018-11-03T19:31:12.162Z,79.56
2018-11-03T19:33:40.777Z,79.97
2018-11-03T19:36:09.334Z,80.13
2018-11-03T19:38:37.868Z,79.94
2018-11-03T19:41:06.464Z,80.85
2018-11-03T19:43:35.106Z,80.04
2018-11-03T19:46:03.781Z,80.29
2018-11-03T19:48:32.296Z,79.88
2018-11-03T19:51:00.795Z,79.85
2018-11-03T19:53:29.601Z,79.14
2018-11-03T19:55:58.142Z,78.94
2018-11-03T19:58:27.697Z,79.05
2018-11-03T20:00:57.526Z,78.32
2018-11-03T20:03:26.134Z,78.16
2018-11-03T20:05:55.862Z,78.20
2018-11-03T20:08:24.404Z,77.47
2018-11-03T20:10:52.977Z,77.57
2018-11-03T20:13:21.531Z,77.77
2018-11-03T20:15:50.052Z,77.66
2018-11-03T20:18:22.394Z,77.26
2018-11-03T20:20:55.095Z,77.58
2018-11-03T20:23:23.846Z,77.54
2018-11-03T20:25:52.358Z,77.14
2018-11-03T20:28:20.914Z,77.35
2018-11-03T20:30:49.798Z,77.77
2018-11-03T20:33:19.220Z,77.84
2018-11-03T20:35:50.570Z,77.74
2018-11-03T20:38:19.228Z,78.06
2018-11-03T20:40:47.717Z,78.08
2018-11-03T20:43:16.795Z,77.92
2018-11-03T20:45:45.340Z,78.01
2018-11-03T20:48:13.952Z,77.91
2018-11-03T20:50:42.475Z,78.11
2018-11-03T20:53:11.044Z,78.47
2018-11-03T20:55:39.562Z,78.36
2018-11-03T20:58:08.108Z,78.15
2018-11-03T21:00:36.593Z,77.82
2018-11-03T21:03:05.187Z,77.91
2018-11-03T21:05:33.684Z,77.80
2018-11-03T21:08:02.595Z,77.94
2018-11-03T21:10:31.111Z,77.99
2018-11-03T21:12:59.628Z,77.67
2018-11-03T21:15:28.173Z,77.31
2018-11-03T21:17:56.698Z,77.32
2018-11-03T21:20:26.050Z,77.44
2018-11-03T21:22:54.662Z,77.06
2018-11-03T21:25:23.079Z,77.12
2018-11-03T21:27:51.747Z,77.11
2018-11-03T21:30:20.412Z,77.18
2018-11-03T21:32:48.933Z,77.20
2018-11-03T21:35:17.380Z,76.67
2018-11-03T21:37:45.887Z,76.98
2018-11-03T21:40:14.395Z,76.85
2018-11-03T21:42:42.906Z,76.99
2018-11-03T21:45:11.480Z,76.82
2018-11-03T21:47:40.936Z,76.93
2018-11-03T21:50:10.140Z,76.90
2018-11-03T21:52:38.722Z,77.30
2018-11-03T21:55:07.831Z,77.11
2018-11-03T21:57:36.560Z,77.02
2018-11-03T22:00:06.061Z,76.50
2018-11-03T22:02:34.556Z,76.67
2018-11-03T22:05:03.075Z,76.84
2018-11-03T22:07:31.575Z,77.01
2018-11-03T22:10:00.220Z,76.55
2018-11-03T22:12:28.706Z,76.59
2018-11-03T22:14:57.245Z,76.57
2018-11-03T22:17:25.788Z,76.69
2018-11-03T22:19:54.328Z,77.11
2018-11-03T22:22:22.814Z,77.06
2018-11-03T22:24:51.874Z,76.90
2018-11-03T22:27:20.364Z,77.05
2018-11-03T22:29:48.868Z,77.10
2018-11-03T22:32:17.435Z,76.94
2018-11-03T22:34:45.976Z,76.90
2018-11-03T22:37:14.515Z,76.84
2018-11-03T22:39:43.029Z,77.27
2018-11-03T22:42:11.565Z,76.96
2018-11-03T22:44:40.642Z,76.46
2018-11-03T22:47:09.165Z,76.80
2018-11-03T22:49:37.711Z,76.50
2018-11-03T22:52:07.381Z,76.38
2018-11-03T22:54:36.753Z,76.52
2018-11-03T22:57:05.401Z,76.39
2018-11-03T22:59:33.903Z,76.30
2018-11-03T23:02:02.463Z,76.18
2018-11-03T23:04:31.035Z,76.49
2018-11-03T23:06:59.599Z,76.48
2018-11-03T23:09:28.121Z,76.77
2018-11-03T23:11:56.654Z,76.82
2018-11-03T23:14:25.176Z,76.80
2018-11-03T23:16:53.710Z,76.55
2018-11-03T23:19:22.255Z,76.34
2018-11-03T23:21:50.822Z,76.45
2018-11-03T23:24:19.313Z,76.48
2018-11-03T23:26:47.830Z,76.53
2018-11-03T23:29:16.310Z,76.69
2018-11-03T23:31:49.584Z,76.46
2018-11-03T23:34:19.696Z,76.51
2018-11-03T23:36:48.367Z,76.56
2018-11-03T23:39:16.870Z,76.70
2018-11-03T23:41:45.387Z,76.67
2018-11-03T23:44:13.886Z,76.97
2018-11-03T23:46:42.948Z,76.73
2018-11-03T23:49:11.489Z,76.73
2018-11-03T23:51:40.050Z,76.72
2018-11-03T23:54:08.574Z,76.75
2018-11-03T23:56:39.875Z,76.70
2018-11-03T23:59:08.842Z,76.43
